• Join FlightAware (Why Join?)
  • Login
  • US Flag 
02:40AM EDT


 

Airport Tracker/Info


-or-


 

Live Flight TrackerFlight Track Log ✈ N102WY ✈ 07-Mar-2014 ✈ KCYS - KCPR

Flight Track Log - Related Links

Times and Time Zones

All times are in EST time to prevent confusion due to time zone crossing. See the N102WY flight status page for this flight to view local times or setup timezone preferences in your user account.

Time Position Orientation Groundspeed Altitude Reporting Facility
EST Latitude Longitude Course Direction KTS MPH feet Rate Location/Type
10:09AM 41.1642 -104.8511 353° North 221 254 8,300  Level Denver Center
10:10AM 41.2183 -104.8708 345° North 216 249 11,500 2,400 Climbing Denver Center
10:11AM 41.2908 -104.8886 350° North 267 307 13,800 2,700 Climbing Denver Center
10:12AM 41.3958 -104.9078 352° North 294 338 17,600 3,180 Climbing Denver Center
10:13AM 41.4936 -104.9306 350° North 314 361 20,400 2,340 Climbing Denver Center
10:14AM 41.6579 -104.9140 353° North  Level FlightAware Approximate
10:14AM 41.5833 -104.9503 351° North 334 384 22,400  Level Denver Center
10:15AM 41.6767 -104.9658 353° North 350 403 24,300 1,860 Climbing Denver Center
10:16AM 41.7722 -104.9875 350° North 357 411 26,300 2,040 Climbing Denver Center
10:17AM 41.8867 -105.0111 351° North 371 427 28,500 2,160 Climbing Denver Center
10:18AM 42.0061 -105.0369 351° North 385 443 30,800 2,160 Climbing Denver Center
10:19AM 42.1106 -105.0592 351° North 392 451 33,000 1,980 Climbing Denver Center
10:20AM 42.2119 -105.0814 351° North 389 448 34,900 1,440 Climbing Denver Center
10:21AM 42.3281 -105.1069 351° North 378 435 36,000 480 Climbing Denver Center
10:22AM 42.4269 -105.1281 351° North 377 434 36,000  Level Denver Center
10:24AM 42.5067 -105.1456 351° North 368 423 36,000  Level Denver Center
10:25AM 42.6322 -105.1725 351° North 360 414 36,000 -60 Level Denver Center
10:26AM 42.7408 -105.1969 351° North 356 410 35,900 -600 Descending Denver Center
10:27AM 42.8389 -105.2181 351° North 368 423 34,700 -1,380 Descending Denver Center
10:28AM 42.9756 -105.2461 351° North 388 447 32,800 -1,560 Descending Denver Center
10:29AM 43.0758 -105.2689 351° North 383 441 31,500 -1,380 Descending Denver Center
10:30AM 43.1917 -105.2944 351° North 382 440 30,000 -1,200 Descending Denver Center
10:31AM 43.2878 -105.3153 351° North 373 429 29,000 -960 Descending Denver Center
10:32AM 43.3803 -105.3364 351° North 362 417 28,000 -1,020 Descending Denver Center
10:33AM 43.4869 -105.3578 352° North 351 404 26,900 -1,020 Descending Denver Center
10:34AM 43.5764 -105.3778 351° North 346 398 25,900 -1,080 Descending Denver Center
10:35AM 43.6792 -105.4000 351° North 340 391 24,800 -1,080 Descending Denver Center
10:36AM 43.7647 -105.4214 350° North 332 382 23,800 -1,020 Descending Denver Center
10:37AM 43.8619 -105.4419 351° North 319 367 22,700 -1,020 Descending Denver Center
10:38AM 43.9442 -105.4614 350° North 318 366 21,700 -1,080 Descending Denver Center
10:39AM 44.0394 -105.4869 349° North 316 364 20,500 -840 Descending Denver Center
10:40AM 44.0289 -105.5822 261° West 301 346 20,000 -300 Descending Denver Center
10:41AM 43.9450 -105.5972 187° South 281 323 20,000  Level Denver Center
10:42AM 43.8761 -105.5867 174° South 269 310 20,000  Level Denver Center
10:43AM 43.8019 -105.5775 175° South 247 284 20,000  Level Denver Center
10:44AM 43.7389 -105.5711 176° South 242 278 20,000  Level Denver Center
10:45AM 43.6678 -105.5642 176° South 235 270 20,000  Level Denver Center
10:46AM 43.6400 -105.5061 123° Southeast 235 270 20,000  Level Denver Center
10:47AM 43.6964 -105.4397 40° Northeast 238 274 20,000  Level Denver Center
10:49AM 43.7564 -105.4208 13° North 238 274 20,000  Level Denver Center
10:50AM 43.8147 -105.4353 350° North 228 262 20,000  Level Denver Center
10:51AM 43.8831 -105.4469 353° North 226 260 20,000  Level Denver Center
10:52AM 43.9403 -105.4608 350° North 221 254 20,000  Level Denver Center
10:53AM 44.0069 -105.4758 351° North 221 254 20,000  Level Denver Center
10:54AM 44.0214 -105.5258 292° West 222 255 20,000  Level Denver Center
10:55AM 43.9558 -105.5350 186° South 220 253 20,000  Level Denver Center
10:56AM 43.8781 -105.5158 170° South 220 253 20,000  Level Denver Center
10:57AM 43.8194 -105.5058 173° South 220 253 20,000  Level Denver Center
10:58AM 43.7611 -105.4969 174° South 220 253 20,000  Level Denver Center
10:59AM 43.6942 -105.4853 173° South 220 253 20,000  Level Denver Center
11:00AM 43.6456 -105.4556 156° South 218 251 20,000  Level Denver Center
11:01AM 43.6967 -105.4033 36° Northeast 232 267 20,000  Level Denver Center
11:02AM 43.7544 -105.4142 352° North 229 264 20,000  Level Denver Center
11:03AM 43.8211 -105.4342 348° North 223 257 20,000  Level Denver Center
11:04AM 43.8778 -105.4467 351° North 221 254 20,000  Level Denver Center
11:05AM 43.9444 -105.4614 351° North 220 253 20,000  Level Denver Center
11:07AM 44.0019 -105.4736 351° North 219 252 20,000  Level Denver Center
11:08AM 44.0075 -105.5317 278° West 223 257 20,000  Level Denver Center
11:09AM 43.9478 -105.5306 179° South 228 262 20,000  Level Denver Center
11:10AM 43.8878 -105.5189 172° South 228 262 20,000  Level Denver Center
11:11AM 43.8281 -105.5103 174° South 228 262 20,000  Level Denver Center
11:12AM 43.7486 -105.5000 175° South 227 261 20,000  Level Denver Center
11:13AM 43.6986 -105.4944 175° South 227 261 20,000  Level Denver Center
11:14AM 43.6492 -105.4367 140° Southeast 242 278 20,000  Level Denver Center
11:15AM 43.7028 -105.4061 22° Northeast 233 268 20,000  Level Denver Center
11:16AM 43.7500 -105.4119 355° North 226 260 20,000  Level Denver Center
11:17AM 43.8253 -105.4356 347° North 221 254 20,000  Level Denver Center
11:18AM 43.8925 -105.4489 352° North 220 253 20,000  Level Denver Center
11:19AM 43.9486 -105.4631 350° North 219 252 20,000  Level Denver Center
11:20AM 44.0150 -105.4772 351° North 218 251 20,000  Level Denver Center
11:21AM 44.0131 -105.5361 267° West 224 258 20,000  Level Denver Center
11:22AM 43.9403 -105.5378 181° South 237 273 20,000  Level Denver Center
11:23AM 43.8792 -105.5214 169° South 237 273 20,000  Level Denver Center
11:24AM 43.8075 -105.5106 174° South 236 272 20,000  Level Denver Center
11:25AM 43.7467 -105.5019 174° South 234 269 20,000  Level Denver Center
11:26AM 43.6661 -105.4914 175° South 232 267 20,000 -240 Level Denver Center
11:27AM 43.6156 -105.5158 199° South 226 260 19,600 -1,020 Descending Denver Center
11:28AM 43.5669 -105.5958 230° Southwest 238 274 17,900 -1,320 Descending Denver Center
11:30AM 43.5164 -105.6608 223° Southwest 248 285 16,700 -1,260 Descending Denver Center
11:31AM 43.4481 -105.7533 225° Southwest 260 299 15,100 -780 Descending Denver Center
11:32AM 43.3825 -105.8400 224° Southwest 276 318 15,100 -120 Level Denver Center
11:33AM 43.3253 -105.9161 224° Southwest 287 330 14,900 -720 Descending Denver Center
11:34AM 43.2575 -106.0061 224° Southwest 296 341 13,700 -1,020 Descending Denver Center
11:35AM 43.2083 -106.0925 232° Southwest 298 343 12,800 -960 Descending Denver Center
11:36AM 43.1475 -106.1731 224° Southwest 287 330 11,700 -1,140 Descending Denver Center
11:37AM 43.0825 -106.2383 216° Southwest 290 334 10,500 -1,440 Descending Denver Center
11:38AM 43.0225 -106.3036 219° Southwest 292 336 8,700 -1,620 Descending Denver Center
11:39AM 42.9647 -106.3794 224° Southwest 279 321 6,800 -1,020 Descending Denver Center
11:40AM 42.9100 -106.4500 223° Southwest 272 313 6,500 -300 Descending Denver Center
11:42AM 42.9000 -106.4500 North  Level FlightAware Approximate